sensor_id;sensor_type;location;lat;lon;timestamp;temperature;humidity
5494;DHT22;2769;49.864;8.656;2022-09-20T00:01:33;15.20;99.90
5494;DHT22;2769;49.864;8.656;2022-09-20T00:04:22;15.30;99.90
5494;DHT22;2769;49.864;8.656;2022-09-20T00:07:10;14.50;99.90
5494;DHT22;2769;49.864;8.656;2022-09-20T00:09:58;14.40;99.90
5494;DHT22;2769;49.864;8.656;2022-09-20T00:12:48;14.30;99.90
5494;DHT22;2769;49.864;8.656;2022-09-20T00:15:40;15.30;99.90
5494;DHT22;2769;49.864;8.656;2022-09-20T00:18:28;14.40;99.90
5494;DHT22;2769;49.864;8.656;2022-09-20T00:21:19;15.60;99.90
5494;DHT22;2769;49.864;8.656;2022-09-20T00:24:09;14.60;99.90
5494;DHT22;2769;49.864;8.656;2022-09-20T00:26:57;14.70;99.90
5494;DHT22;2769;49.864;8.656;2022-09-20T00:29:47;14.70;99.90
5494;DHT22;2769;49.864;8.656;2022-09-20T00:32:35;14.50;99.90
5494;DHT22;2769;49.864;8.656;2022-09-20T00:35:24;14.60;99.90
5494;DHT22;2769;49.864;8.656;2022-09-20T00:38:11;14.70;99.90
5494;DHT22;2769;49.864;8.656;2022-09-20T00:41:00;14.60;99.90
5494;DHT22;2769;49.864;8.656;2022-09-20T00:43:49;14.40;99.90
5494;DHT22;2769;49.864;8.656;2022-09-20T00:46:40;14.40;99.90
5494;DHT22;2769;49.864;8.656;2022-09-20T00:49:30;14.30;99.90
5494;DHT22;2769;49.864;8.656;2022-09-20T00:52:20;14.10;99.90
5494;DHT22;2769;49.864;8.656;2022-09-20T00:55:10;14.50;99.90
5494;DHT22;2769;49.864;8.656;2022-09-20T00:57:59;14.20;99.90
5494;DHT22;2769;49.864;8.656;2022-09-20T01:00:48;13.80;99.90
5494;DHT22;2769;49.864;8.656;2022-09-20T01:03:41;14.00;99.90
5494;DHT22;2769;49.864;8.656;2022-09-20T01:06:31;14.00;99.90
5494;DHT22;2769;49.864;8.656;2022-09-20T01:09:20;14.00;99.90
5494;DHT22;2769;49.864;8.656;2022-09-20T01:12:11;14.10;99.90
5494;DHT22;2769;49.864;8.656;2022-09-20T01:15:03;14.70;99.90
5494;DHT22;2769;49.864;8.656;2022-09-20T01:17:53;14.40;99.90
5494;DHT22;2769;49.864;8.656;2022-09-20T01:20:44;15.40;99.90
5494;DHT22;2769;49.864;8.656;2022-09-20T01:23:42;14.40;99.90
5494;DHT22;2769;49.864;8.656;2022-09-20T01:29:57;14.40;99.90
5494;DHT22;2769;49.864;8.656;2022-09-20T01:33:03;14.30;99.90
5494;DHT22;2769;49.864;8.656;2022-09-20T01:35:57;14.20;99.90
5494;DHT22;2769;49.864;8.656;2022-09-20T01:38:53;14.00;99.90
5494;DHT22;2769;49.864;8.656;2022-09-20T01:41:52;14.00;99.90
5494;DHT22;2769;49.864;8.656;2022-09-20T01:44:51;14.10;99.90
5494;DHT22;2769;49.864;8.656;2022-09-20T01:47:49;14.10;99.90
5494;DHT22;2769;49.864;8.656;2022-09-20T01:50:52;14.10;99.90
5494;DHT22;2769;49.864;8.656;2022-09-20T01:54:13;14.00;99.90
5494;DHT22;2769;49.864;8.656;2022-09-20T02:00:37;13.80;99.90
5494;DHT22;2769;49.864;8.656;2022-09-20T02:10:43;13.50;99.90
5494;DHT22;2769;49.864;8.656;2022-09-20T02:13:49;13.50;99.90
5494;DHT22;2769;49.864;8.656;2022-09-20T02:16:49;14.70;99.90
5494;DHT22;2769;49.864;8.656;2022-09-20T02:22:47;13.80;99.90
5494;DHT22;2769;49.864;8.656;2022-09-20T02:25:53;13.70;99.90
5494;DHT22;2769;49.864;8.656;2022-09-20T02:28:53;13.60;99.90
5494;DHT22;2769;49.864;8.656;2022-09-20T02:32:09;13.60;99.90
5494;DHT22;2769;49.864;8.656;2022-09-20T02:35:14;13.30;99.90
5494;DHT22;2769;49.864;8.656;2022-09-20T02:38:15;12.90;99.90
5494;DHT22;2769;49.864;8.656;2022-09-20T02:44:47;12.50;99.90
5494;DHT22;2769;49.864;8.656;2022-09-20T02:47:42;12.50;99.90
5494;DHT22;2769;49.864;8.656;2022-09-20T02:50:37;12.70;99.90
5494;DHT22;2769;49.864;8.656;2022-09-20T02:53:36;12.80;99.90
5494;DHT22;2769;49.864;8.656;2022-09-20T02:56:32;13.00;99.90
5494;DHT22;2769;49.864;8.656;2022-09-20T02:59:27;12.40;99.90
5494;DHT22;2769;49.864;8.656;2022-09-20T03:02:23;12.60;99.90
5494;DHT22;2769;49.864;8.656;2022-09-20T03:05:18;13.00;99.90
5494;DHT22;2769;49.864;8.656;2022-09-20T03:08:28;13.30;99.90
5494;DHT22;2769;49.864;8.656;2022-09-20T03:11:28;13.30;99.90
5494;DHT22;2769;49.864;8.656;2022-09-20T03:14:19;13.30;99.90
5494;DHT22;2769;49.864;8.656;2022-09-20T03:17:18;13.40;99.90
5494;DHT22;2769;49.864;8.656;2022-09-20T03:20:21;13.40;99.90
5494;DHT22;2769;49.864;8.656;2022-09-20T03:23:20;13.50;99.90
5494;DHT22;2769;49.864;8.656;2022-09-20T03:26:19;13.40;99.90
5494;DHT22;2769;49.864;8.656;2022-09-20T03:29:25;13.20;99.90
5494;DHT22;2769;49.864;8.656;2022-09-20T03:32:30;12.80;99.90
5494;DHT22;2769;49.864;8.656;2022-09-20T03:35:34;12.30;99.90
5494;DHT22;2769;49.864;8.656;2022-09-20T03:38:41;12.10;99.90
5494;DHT22;2769;49.864;8.656;2022-09-20T03:41:51;11.70;99.90
5494;DHT22;2769;49.864;8.656;2022-09-20T03:48:34;11.90;99.90
5494;DHT22;2769;49.864;8.656;2022-09-20T03:51:33;11.90;99.90
5494;DHT22;2769;49.864;8.656;2022-09-20T03:54:48;12.30;99.90
5494;DHT22;2769;49.864;8.656;2022-09-20T03:57:55;12.50;99.90
5494;DHT22;2769;49.864;8.656;2022-09-20T04:00:55;12.70;99.90
5494;DHT22;2769;49.864;8.656;2022-09-20T04:03:52;12.60;99.90
5494;DHT22;2769;49.864;8.656;2022-09-20T04:06:55;12.70;99.90
5494;DHT22;2769;49.864;8.656;2022-09-20T04:10:00;12.50;99.90
5494;DHT22;2769;49.864;8.656;2022-09-20T04:13:03;12.60;99.90
5494;DHT22;2769;49.864;8.656;2022-09-20T04:16:16;12.60;99.90
5494;DHT22;2769;49.864;8.656;2022-09-20T04:19:13;12.60;99.90
5494;DHT22;2769;49.864;8.656;2022-09-20T04:22:07;12.50;99.90
5494;DHT22;2769;49.864;8.656;2022-09-20T04:25:00;12.40;99.90
5494;DHT22;2769;49.864;8.656;2022-09-20T04:27:52;12.60;99.90
5494;DHT22;2769;49.864;8.656;2022-09-20T04:30:42;12.50;99.90
5494;DHT22;2769;49.864;8.656;2022-09-20T04:33:36;12.60;99.90
5494;DHT22;2769;49.864;8.656;2022-09-20T04:36:36;12.80;99.90
5494;DHT22;2769;49.864;8.656;2022-09-20T04:39:45;12.70;99.90
5494;DHT22;2769;49.864;8.656;2022-09-20T04:43:05;12.50;99.90
5494;DHT22;2769;49.864;8.656;2022-09-20T04:49:48;12.60;99.90
5494;DHT22;2769;49.864;8.656;2022-09-20T04:53:36;12.60;99.90
5494;DHT22;2769;49.864;8.656;2022-09-20T04:56:40;12.50;99.90
5494;DHT22;2769;49.864;8.656;2022-09-20T04:59:48;12.50;99.90
5494;DHT22;2769;49.864;8.656;2022-09-20T05:06:31;12.50;99.90
5494;DHT22;2769;49.864;8.656;2022-09-20T05:09:55;12.60;99.90
5494;DHT22;2769;49.864;8.656;2022-09-20T05:13:11;12.50;99.90
5494;DHT22;2769;49.864;8.656;2022-09-20T05:16:06;12.50;99.90
5494;DHT22;2769;49.864;8.656;2022-09-20T05:19:08;12.60;99.90
5494;DHT22;2769;49.864;8.656;2022-09-20T05:22:41;12.60;99.90
5494;DHT22;2769;49.864;8.656;2022-09-20T05:26:02;12.50;99.90
5494;DHT22;2769;49.864;8.656;2022-09-20T05:28:59;12.70;99.90
5494;DHT22;2769;49.864;8.656;2022-09-20T05:31:52;12.70;99.90
5494;DHT22;2769;49.864;8.656;2022-09-20T05:34:47;12.60;99.90
5494;DHT22;2769;49.864;8.656;2022-09-20T05:37:43;12.60;99.90
5494;DHT22;2769;49.864;8.656;2022-09-20T05:40:48;12.70;99.90
5494;DHT22;2769;49.864;8.656;2022-09-20T05:43:49;13.20;99.90
5494;DHT22;2769;49.864;8.656;2022-09-20T05:46:49;12.80;99.90
5494;DHT22;2769;49.864;8.656;2022-09-20T05:49:50;12.90;99.90
5494;DHT22;2769;49.864;8.656;2022-09-20T05:52:48;12.70;99.90
5494;DHT22;2769;49.864;8.656;2022-09-20T05:55:48;12.80;99.90
5494;DHT22;2769;49.864;8.656;2022-09-20T05:58:49;12.70;99.90
5494;DHT22;2769;49.864;8.656;2022-09-20T06:01:58;13.00;99.90
5494;DHT22;2769;49.864;8.656;2022-09-20T06:04:54;12.90;99.90
5494;DHT22;2769;49.864;8.656;2022-09-20T06:08:03;13.00;99.90
5494;DHT22;2769;49.864;8.656;2022-09-20T06:11:25;12.80;99.90
5494;DHT22;2769;49.864;8.656;2022-09-20T06:14:29;12.80;99.90
5494;DHT22;2769;49.864;8.656;2022-09-20T06:17:26;12.70;99.90
5494;DHT22;2769;49.864;8.656;2022-09-20T06:20:23;12.60;99.90
5494;DHT22;2769;49.864;8.656;2022-09-20T06:23:13;12.70;99.90
5494;DHT22;2769;49.864;8.656;2022-09-20T06:26:05;13.60;99.90
5494;DHT22;2769;49.864;8.656;2022-09-20T06:28:59;13.20;99.90
5494;DHT22;2769;49.864;8.656;2022-09-20T06:31:52;13.40;99.90
5494;DHT22;2769;49.864;8.656;2022-09-20T06:34:41;13.60;99.90
5494;DHT22;2769;49.864;8.656;2022-09-20T06:37:43;13.70;99.90
5494;DHT22;2769;49.864;8.656;2022-09-20T06:40:55;13.80;99.90
5494;DHT22;2769;49.864;8.656;2022-09-20T06:44:02;14.80;99.90
5494;DHT22;2769;49.864;8.656;2022-09-20T06:46:51;15.00;99.90
5494;DHT22;2769;49.864;8.656;2022-09-20T06:49:42;14.20;99.90
5494;DHT22;2769;49.864;8.656;2022-09-20T06:52:30;15.10;99.90
5494;DHT22;2769;49.864;8.656;2022-09-20T06:55:21;14.20;99.90
5494;DHT22;2769;49.864;8.656;2022-09-20T06:58:15;14.60;99.90
5494;DHT22;2769;49.864;8.656;2022-09-20T07:01:04;14.50;99.90
5494;DHT22;2769;49.864;8.656;2022-09-20T07:03:52;14.40;99.90
5494;DHT22;2769;49.864;8.656;2022-09-20T07:06:42;14.30;99.90
5494;DHT22;2769;49.864;8.656;2022-09-20T07:09:30;14.50;99.90
5494;DHT22;2769;49.864;8.656;2022-09-20T07:12:19;15.00;99.90
5494;DHT22;2769;49.864;8.656;2022-09-20T07:15:08;14.40;99.90
5494;DHT22;2769;49.864;8.656;2022-09-20T07:17:57;14.50;99.90
5494;DHT22;2769;49.864;8.656;2022-09-20T07:20:45;14.70;99.90
5494;DHT22;2769;49.864;8.656;2022-09-20T07:23:35;14.80;99.90
5494;DHT22;2769;49.864;8.656;2022-09-20T07:26:25;15.80;99.90
5494;DHT22;2769;49.864;8.656;2022-09-20T07:29:14;15.20;99.90
5494;DHT22;2769;49.864;8.656;2022-09-20T07:32:02;15.10;99.90
5494;DHT22;2769;49.864;8.656;2022-09-20T07:34:51;14.90;99.90
5494;DHT22;2769;49.864;8.656;2022-09-20T07:37:39;15.30;99.90
5494;DHT22;2769;49.864;8.656;2022-09-20T07:40:29;14.50;99.90
5494;DHT22;2769;49.864;8.656;2022-09-20T07:43:18;14.80;99.90
5494;DHT22;2769;49.864;8.656;2022-09-20T07:46:06;15.30;99.90
5494;DHT22;2769;49.864;8.656;2022-09-20T07:48:54;14.80;99.90
5494;DHT22;2769;49.864;8.656;2022-09-20T07:51:43;14.80;99.90
5494;DHT22;2769;49.864;8.656;2022-09-20T07:54:31;15.00;99.90
5494;DHT22;2769;49.864;8.656;2022-09-20T07:57:21;15.70;99.90
5494;DHT22;2769;49.864;8.656;2022-09-20T08:00:10;14.20;99.90
5494;DHT22;2769;49.864;8.656;2022-09-20T08:02:59;14.60;99.90
5494;DHT22;2769;49.864;8.656;2022-09-20T08:05:48;14.90;99.90
5494;DHT22;2769;49.864;8.656;2022-09-20T08:08:38;15.30;99.90
5494;DHT22;2769;49.864;8.656;2022-09-20T08:11:27;14.50;99.90
5494;DHT22;2769;49.864;8.656;2022-09-20T08:14:18;15.80;99.90
5494;DHT22;2769;49.864;8.656;2022-09-20T08:17:08;15.40;99.90
5494;DHT22;2769;49.864;8.656;2022-09-20T08:19:57;15.80;99.90
5494;DHT22;2769;49.864;8.656;2022-09-20T08:22:46;16.60;99.90
5494;DHT22;2769;49.864;8.656;2022-09-20T08:25:55;17.20;99.90
5494;DHT22;2769;49.864;8.656;2022-09-20T08:28:45;17.40;99.90
5494;DHT22;2769;49.864;8.656;2022-09-20T08:31:37;17.70;99.90
5494;DHT22;2769;49.864;8.656;2022-09-20T08:34:28;17.60;99.90
5494;DHT22;2769;49.864;8.656;2022-09-20T08:37:17;18.10;99.90
5494;DHT22;2769;49.864;8.656;2022-09-20T08:40:06;17.60;99.90
5494;DHT22;2769;49.864;8.656;2022-09-20T08:42:55;17.50;99.90
5494;DHT22;2769;49.864;8.656;2022-09-20T08:45:44;17.20;99.90
5494;DHT22;2769;49.864;8.656;2022-09-20T08:48:17;17.30;99.90
5494;DHT22;2769;49.864;8.656;2022-09-20T08:50:48;17.60;99.90
5494;DHT22;2769;49.864;8.656;2022-09-20T08:53:17;17.90;99.90
5494;DHT22;2769;49.864;8.656;2022-09-20T08:55:47;18.10;99.90
5494;DHT22;2769;49.864;8.656;2022-09-20T08:58:15;18.10;99.90
5494;DHT22;2769;49.864;8.656;2022-09-20T09:00:45;18.20;99.90
5494;DHT22;2769;49.864;8.656;2022-09-20T09:03:16;18.40;99.90
5494;DHT22;2769;49.864;8.656;2022-09-20T09:05:46;18.50;99.90
5494;DHT22;2769;49.864;8.656;2022-09-20T09:08:16;18.80;99.90
5494;DHT22;2769;49.864;8.656;2022-09-20T09:10:48;18.00;99.90
5494;DHT22;2769;49.864;8.656;2022-09-20T09:13:25;17.60;99.90
5494;DHT22;2769;49.864;8.656;2022-09-20T09:15:58;18.10;99.90
5494;DHT22;2769;49.864;8.656;2022-09-20T09:18:32;17.60;99.90
5494;DHT22;2769;49.864;8.656;2022-09-20T09:21:02;17.20;99.90
5494;DHT22;2769;49.864;8.656;2022-09-20T09:23:52;16.30;99.90
5494;DHT22;2769;49.864;8.656;2022-09-20T09:26:24;16.80;99.90
5494;DHT22;2769;49.864;8.656;2022-09-20T09:29:14;16.90;99.90
5494;DHT22;2769;49.864;8.656;2022-09-20T09:31:43;17.30;99.90
5494;DHT22;2769;49.864;8.656;2022-09-20T09:34:26;17.70;99.90
5494;DHT22;2769;49.864;8.656;2022-09-20T09:36:55;18.50;99.90
5494;DHT22;2769;49.864;8.656;2022-09-20T09:39:24;19.30;99.90
5494;DHT22;2769;49.864;8.656;2022-09-20T09:41:53;20.40;99.90
5494;DHT22;2769;49.864;8.656;2022-09-20T09:44:24;20.60;99.90
5494;DHT22;2769;49.864;8.656;2022-09-20T09:46:53;20.70;99.90
5494;DHT22;2769;49.864;8.656;2022-09-20T09:49:24;21.80;99.90
5494;DHT22;2769;49.864;8.656;2022-09-20T09:52:03;22.00;99.90
5494;DHT22;2769;49.864;8.656;2022-09-20T09:54:33;22.50;98.20
5494;DHT22;2769;49.864;8.656;2022-09-20T09:57:21;22.60;97.60
5494;DHT22;2769;49.864;8.656;2022-09-20T10:00:09;23.50;97.80
5494;DHT22;2769;49.864;8.656;2022-09-20T10:03:18;23.00;95.30
5494;DHT22;2769;49.864;8.656;2022-09-20T10:06:05;23.90;92.90
5494;DHT22;2769;49.864;8.656;2022-09-20T10:08:44;23.60;94.00
5494;DHT22;2769;49.864;8.656;2022-09-20T10:11:45;23.40;93.50
5494;DHT22;2769;49.864;8.656;2022-09-20T10:14:48;23.10;93.90
5494;DHT22;2769;49.864;8.656;2022-09-20T10:17:50;22.50;93.30
5494;DHT22;2769;49.864;8.656;2022-09-20T10:21:05;22.10;94.30
5494;DHT22;2769;49.864;8.656;2022-09-20T10:24:06;22.80;94.40
5494;DHT22;2769;49.864;8.656;2022-09-20T10:27:05;23.50;93.20
5494;DHT22;2769;49.864;8.656;2022-09-20T10:30:02;24.60;91.90
5494;DHT22;2769;49.864;8.656;2022-09-20T10:32:57;24.30;90.00
5494;DHT22;2769;49.864;8.656;2022-09-20T10:36:00;24.00;90.00
5494;DHT22;2769;49.864;8.656;2022-09-20T10:38:57;23.40;87.70
5494;DHT22;2769;49.864;8.656;2022-09-20T10:41:56;22.70;89.10
5494;DHT22;2769;49.864;8.656;2022-09-20T10:45:10;22.20;90.40
5494;DHT22;2769;49.864;8.656;2022-09-20T10:48:26;21.90;91.50
5494;DHT22;2769;49.864;8.656;2022-09-20T10:51:23;21.10;91.80
5494;DHT22;2769;49.864;8.656;2022-09-20T10:54:25;20.80;91.70
5494;DHT22;2769;49.864;8.656;2022-09-20T10:57:29;19.50;94.30
5494;DHT22;2769;49.864;8.656;2022-09-20T11:00:24;19.10;95.70
5494;DHT22;2769;49.864;8.656;2022-09-20T11:03:32;18.90;95.70
5494;DHT22;2769;49.864;8.656;2022-09-20T11:06:36;19.60;99.70
5494;DHT22;2769;49.864;8.656;2022-09-20T11:09:32;18.50;99.90
5494;DHT22;2769;49.864;8.656;2022-09-20T11:12:25;18.70;99.90
5494;DHT22;2769;49.864;8.656;2022-09-20T11:15:18;18.50;99.90
5494;DHT22;2769;49.864;8.656;2022-09-20T11:18:13;18.30;99.90
5494;DHT22;2769;49.864;8.656;2022-09-20T11:21:09;19.10;99.90
5494;DHT22;2769;49.864;8.656;2022-09-20T11:24:09;19.40;99.90
5494;DHT22;2769;49.864;8.656;2022-09-20T11:27:03;19.10;99.90
5494;DHT22;2769;49.864;8.656;2022-09-20T11:29:56;19.70;99.90
5494;DHT22;2769;49.864;8.656;2022-09-20T11:32:51;19.50;99.90
5494;DHT22;2769;49.864;8.656;2022-09-20T11:35:45;20.60;99.90
5494;DHT22;2769;49.864;8.656;2022-09-20T11:38:38;19.80;99.90
5494;DHT22;2769;49.864;8.656;2022-09-20T11:41:31;18.80;99.90
5494;DHT22;2769;49.864;8.656;2022-09-20T11:44:20;18.40;99.90
5494;DHT22;2769;49.864;8.656;2022-09-20T11:47:16;18.30;99.90
5494;DHT22;2769;49.864;8.656;2022-09-20T11:50:47;17.70;99.90
5494;DHT22;2769;49.864;8.656;2022-09-20T11:53:54;17.50;99.90
5494;DHT22;2769;49.864;8.656;2022-09-20T11:56:50;17.70;99.90
5494;DHT22;2769;49.864;8.656;2022-09-20T11:59:40;17.60;99.90
5494;DHT22;2769;49.864;8.656;2022-09-20T12:02:33;18.10;99.90
5494;DHT22;2769;49.864;8.656;2022-09-20T12:05:29;17.60;99.90
5494;DHT22;2769;49.864;8.656;2022-09-20T12:08:23;18.40;99.90
5494;DHT22;2769;49.864;8.656;2022-09-20T12:11:13;19.40;99.90
5494;DHT22;2769;49.864;8.656;2022-09-20T12:14:06;20.40;98.50
5494;DHT22;2769;49.864;8.656;2022-09-20T12:17:04;22.40;95.50
5494;DHT22;2769;49.864;8.656;2022-09-20T12:19:52;22.90;92.60
5494;DHT22;2769;49.864;8.656;2022-09-20T12:22:41;23.50;91.60
5494;DHT22;2769;49.864;8.656;2022-09-20T12:25:35;22.50;91.30
5494;DHT22;2769;49.864;8.656;2022-09-20T12:28:32;21.60;93.30
5494;DHT22;2769;49.864;8.656;2022-09-20T12:31:38;21.10;93.70
5494;DHT22;2769;49.864;8.656;2022-09-20T12:34:35;20.50;94.60
5494;DHT22;2769;49.864;8.656;2022-09-20T12:37:25;20.50;95.50
5494;DHT22;2769;49.864;8.656;2022-09-20T12:40:14;20.70;95.40
5494;DHT22;2769;49.864;8.656;2022-09-20T12:43:13;20.90;96.70
5494;DHT22;2769;49.864;8.656;2022-09-20T12:46:03;23.50;94.90
5494;DHT22;2769;49.864;8.656;2022-09-20T12:49:22;24.80;91.50
5494;DHT22;2769;49.864;8.656;2022-09-20T12:52:52;23.90;92.20
5494;DHT22;2769;49.864;8.656;2022-09-20T12:55:53;24.00;91.60
5494;DHT22;2769;49.864;8.656;2022-09-20T12:58:51;22.00;88.30
5494;DHT22;2769;49.864;8.656;2022-09-20T13:01:40;22.80;91.90
5494;DHT22;2769;49.864;8.656;2022-09-20T13:04:55;23.70;88.80
5494;DHT22;2769;49.864;8.656;2022-09-20T13:07:52;23.10;84.20
5494;DHT22;2769;49.864;8.656;2022-09-20T13:10:47;24.70;80.90
5494;DHT22;2769;49.864;8.656;2022-09-20T13:13:40;26.10;83.00
5494;DHT22;2769;49.864;8.656;2022-09-20T13:16:37;24.70;77.40
5494;DHT22;2769;49.864;8.656;2022-09-20T13:19:30;23.50;80.30
5494;DHT22;2769;49.864;8.656;2022-09-20T13:22:23;23.00;79.20
5494;DHT22;2769;49.864;8.656;2022-09-20T13:25:14;23.00;80.90
5494;DHT22;2769;49.864;8.656;2022-09-20T13:28:07;23.00;78.00
5494;DHT22;2769;49.864;8.656;2022-09-20T13:31:25;22.80;80.70
5494;DHT22;2769;49.864;8.656;2022-09-20T13:34:18;21.80;80.60
5494;DHT22;2769;49.864;8.656;2022-09-20T13:37:15;21.30;87.80
5494;DHT22;2769;49.864;8.656;2022-09-20T13:40:17;20.30;90.00
5494;DHT22;2769;49.864;8.656;2022-09-20T13:43:18;20.30;91.40
5494;DHT22;2769;49.864;8.656;2022-09-20T13:46:13;20.60;92.20
5494;DHT22;2769;49.864;8.656;2022-09-20T13:49:13;20.50;94.80
5494;DHT22;2769;49.864;8.656;2022-09-20T13:52:19;21.30;95.90
5494;DHT22;2769;49.864;8.656;2022-09-20T13:55:29;20.90;96.70
5494;DHT22;2769;49.864;8.656;2022-09-20T13:58:20;20.70;98.90
5494;DHT22;2769;49.864;8.656;2022-09-20T14:01:21;19.80;99.90
5494;DHT22;2769;49.864;8.656;2022-09-20T14:04:14;19.50;99.90
5494;DHT22;2769;49.864;8.656;2022-09-20T14:07:05;19.70;99.90
5494;DHT22;2769;49.864;8.656;2022-09-20T14:09:54;20.90;99.90
5494;DHT22;2769;49.864;8.656;2022-09-20T14:12:46;21.50;99.90
5494;DHT22;2769;49.864;8.656;2022-09-20T14:15:37;22.90;99.90
5494;DHT22;2769;49.864;8.656;2022-09-20T14:18:26;25.80;99.50
5494;DHT22;2769;49.864;8.656;2022-09-20T14:21:20;25.80;94.90
5494;DHT22;2769;49.864;8.656;2022-09-20T14:24:25;25.20;97.20
5494;DHT22;2769;49.864;8.656;2022-09-20T14:27:16;25.30;94.90
5494;DHT22;2769;49.864;8.656;2022-09-20T14:30:27;25.20;91.50
5494;DHT22;2769;49.864;8.656;2022-09-20T14:33:19;26.20;90.70
5494;DHT22;2769;49.864;8.656;2022-09-20T14:36:12;27.80;89.70
5494;DHT22;2769;49.864;8.656;2022-09-20T14:39:03;29.60;81.80
5494;DHT22;2769;49.864;8.656;2022-09-20T14:41:52;28.10;80.30
5494;DHT22;2769;49.864;8.656;2022-09-20T14:44:41;25.40;85.90
5494;DHT22;2769;49.864;8.656;2022-09-20T14:47:37;23.90;90.40
5494;DHT22;2769;49.864;8.656;2022-09-20T14:50:27;22.40;91.80
5494;DHT22;2769;49.864;8.656;2022-09-20T14:53:24;21.80;93.40
5494;DHT22;2769;49.864;8.656;2022-09-20T14:56:25;21.40;93.40
5494;DHT22;2769;49.864;8.656;2022-09-20T14:59:23;20.40;94.40
5494;DHT22;2769;49.864;8.656;2022-09-20T15:02:13;19.90;95.20
5494;DHT22;2769;49.864;8.656;2022-09-20T15:05:04;19.40;95.30
5494;DHT22;2769;49.864;8.656;2022-09-20T15:07:54;18.90;96.70
5494;DHT22;2769;49.864;8.656;2022-09-20T15:10:43;18.90;98.20
5494;DHT22;2769;49.864;8.656;2022-09-20T15:13:31;19.00;98.50
5494;DHT22;2769;49.864;8.656;2022-09-20T15:16:22;19.00;98.60
5494;DHT22;2769;49.864;8.656;2022-09-20T15:19:10;18.70;99.60
5494;DHT22;2769;49.864;8.656;2022-09-20T15:22:00;18.50;99.00
5494;DHT22;2769;49.864;8.656;2022-09-20T15:24:48;18.50;99.90
5494;DHT22;2769;49.864;8.656;2022-09-20T15:27:36;18.00;99.70
5494;DHT22;2769;49.864;8.656;2022-09-20T15:30:25;18.00;99.90
5494;DHT22;2769;49.864;8.656;2022-09-20T15:33:13;18.40;99.90
5494;DHT22;2769;49.864;8.656;2022-09-20T15:36:02;18.90;99.90
5494;DHT22;2769;49.864;8.656;2022-09-20T15:38:53;18.10;99.90
5494;DHT22;2769;49.864;8.656;2022-09-20T15:41:42;18.30;99.20
5494;DHT22;2769;49.864;8.656;2022-09-20T15:44:31;18.10;99.40
5494;DHT22;2769;49.864;8.656;2022-09-20T15:47:20;18.20;98.60
5494;DHT22;2769;49.864;8.656;2022-09-20T15:50:09;18.80;97.90
5494;DHT22;2769;49.864;8.656;2022-09-20T15:52:58;18.30;97.40
5494;DHT22;2769;49.864;8.656;2022-09-20T15:55:48;18.40;98.00
5494;DHT22;2769;49.864;8.656;2022-09-20T15:58:36;18.50;98.40
5494;DHT22;2769;49.864;8.656;2022-09-20T16:01:25;18.50;97.20
5494;DHT22;2769;49.864;8.656;2022-09-20T16:04:16;18.80;98.90
5494;DHT22;2769;49.864;8.656;2022-09-20T16:07:05;18.70;98.40
5494;DHT22;2769;49.864;8.656;2022-09-20T16:09:55;18.70;98.00
5494;DHT22;2769;49.864;8.656;2022-09-20T16:12:45;18.80;98.10
5494;DHT22;2769;49.864;8.656;2022-09-20T16:15:34;17.90;96.80
5494;DHT22;2769;49.864;8.656;2022-09-20T16:18:24;17.60;98.20
5494;DHT22;2769;49.864;8.656;2022-09-20T16:21:30;17.90;99.40
5494;DHT22;2769;49.864;8.656;2022-09-20T16:24:21;18.50;99.60
5494;DHT22;2769;49.864;8.656;2022-09-20T16:27:10;17.80;98.90
5494;DHT22;2769;49.864;8.656;2022-09-20T16:30:00;18.00;98.70
5494;DHT22;2769;49.864;8.656;2022-09-20T16:32:48;17.60;98.70
5494;DHT22;2769;49.864;8.656;2022-09-20T16:35:37;17.70;99.90
5494;DHT22;2769;49.864;8.656;2022-09-20T16:38:25;18.30;99.90
5494;DHT22;2769;49.864;8.656;2022-09-20T16:41:14;17.90;99.60
5494;DHT22;2769;49.864;8.656;2022-09-20T16:44:02;17.90;99.50
5494;DHT22;2769;49.864;8.656;2022-09-20T16:46:52;18.30;99.60
5494;DHT22;2769;49.864;8.656;2022-09-20T16:49:40;18.10;98.70
5494;DHT22;2769;49.864;8.656;2022-09-20T16:52:29;18.00;99.30
5494;DHT22;2769;49.864;8.656;2022-09-20T16:55:17;18.00;99.50
5494;DHT22;2769;49.864;8.656;2022-09-20T16:58:06;17.80;99.80
5494;DHT22;2769;49.864;8.656;2022-09-20T17:01:01;18.00;99.90
5494;DHT22;2769;49.864;8.656;2022-09-20T17:03:52;17.90;99.90
5494;DHT22;2769;49.864;8.656;2022-09-20T17:06:41;17.80;99.90
5494;DHT22;2769;49.864;8.656;2022-09-20T17:09:30;18.30;99.90
5494;DHT22;2769;49.864;8.656;2022-09-20T17:12:18;17.50;99.90
5494;DHT22;2769;49.864;8.656;2022-09-20T17:15:09;17.60;99.90
5494;DHT22;2769;49.864;8.656;2022-09-20T17:17:59;17.70;99.90
5494;DHT22;2769;49.864;8.656;2022-09-20T17:20:52;17.50;99.90
5494;DHT22;2769;49.864;8.656;2022-09-20T17:23:42;17.60;99.90
5494;DHT22;2769;49.864;8.656;2022-09-20T17:26:38;17.60;99.90
5494;DHT22;2769;49.864;8.656;2022-09-20T17:29:26;17.40;99.90
5494;DHT22;2769;49.864;8.656;2022-09-20T17:32:15;17.40;99.90
5494;DHT22;2769;49.864;8.656;2022-09-20T17:35:06;18.00;99.90
5494;DHT22;2769;49.864;8.656;2022-09-20T17:37:55;17.40;99.90
5494;DHT22;2769;49.864;8.656;2022-09-20T17:40:44;18.40;99.90
5494;DHT22;2769;49.864;8.656;2022-09-20T17:43:32;17.60;99.90
5494;DHT22;2769;49.864;8.656;2022-09-20T17:46:23;17.50;99.90
5494;DHT22;2769;49.864;8.656;2022-09-20T17:49:13;17.90;99.90
5494;DHT22;2769;49.864;8.656;2022-09-20T17:52:02;18.40;99.90
5494;DHT22;2769;49.864;8.656;2022-09-20T17:54:55;17.20;99.90
5494;DHT22;2769;49.864;8.656;2022-09-20T17:57:43;18.10;99.90
5494;DHT22;2769;49.864;8.656;2022-09-20T18:00:32;17.10;99.90
5494;DHT22;2769;49.864;8.656;2022-09-20T18:03:20;17.20;99.90
5494;DHT22;2769;49.864;8.656;2022-09-20T18:06:13;17.00;99.90
5494;DHT22;2769;49.864;8.656;2022-09-20T18:09:03;17.20;99.90
5494;DHT22;2769;49.864;8.656;2022-09-20T18:11:54;17.20;99.90
5494;DHT22;2769;49.864;8.656;2022-09-20T18:14:43;17.30;99.90
5494;DHT22;2769;49.864;8.656;2022-09-20T18:17:31;17.30;99.90
5494;DHT22;2769;49.864;8.656;2022-09-20T18:20:20;17.00;99.90
5494;DHT22;2769;49.864;8.656;2022-09-20T18:23:08;17.10;99.90
5494;DHT22;2769;49.864;8.656;2022-09-20T18:25:57;17.20;99.90
5494;DHT22;2769;49.864;8.656;2022-09-20T18:29:05;17.20;99.90
5494;DHT22;2769;49.864;8.656;2022-09-20T18:31:55;17.20;99.90
5494;DHT22;2769;49.864;8.656;2022-09-20T18:34:45;17.20;99.90
5494;DHT22;2769;49.864;8.656;2022-09-20T18:37:37;17.20;99.90
5494;DHT22;2769;49.864;8.656;2022-09-20T18:40:25;17.20;99.90
5494;DHT22;2769;49.864;8.656;2022-09-20T18:43:15;17.20;99.90
5494;DHT22;2769;49.864;8.656;2022-09-20T18:46:05;17.40;99.90
5494;DHT22;2769;49.864;8.656;2022-09-20T18:48:54;17.40;99.90
5494;DHT22;2769;49.864;8.656;2022-09-20T18:51:43;17.40;99.90
5494;DHT22;2769;49.864;8.656;2022-09-20T18:54:33;17.20;99.90
5494;DHT22;2769;49.864;8.656;2022-09-20T18:57:22;17.10;99.90
5494;DHT22;2769;49.864;8.656;2022-09-20T19:00:12;17.20;99.90
5494;DHT22;2769;49.864;8.656;2022-09-20T19:03:04;17.20;99.90
5494;DHT22;2769;49.864;8.656;2022-09-20T19:06:02;17.40;99.90
5494;DHT22;2769;49.864;8.656;2022-09-20T19:08:58;17.50;99.90
5494;DHT22;2769;49.864;8.656;2022-09-20T19:12:00;17.60;99.90
5494;DHT22;2769;49.864;8.656;2022-09-20T19:15:14;18.00;99.90
5494;DHT22;2769;49.864;8.656;2022-09-20T19:18:20;17.70;99.90
5494;DHT22;2769;49.864;8.656;2022-09-20T19:21:18;17.50;99.90
5494;DHT22;2769;49.864;8.656;2022-09-20T19:24:18;17.60;99.90
5494;DHT22;2769;49.864;8.656;2022-09-20T19:27:10;17.40;99.90